sensor_id;sensor_type;location;lat;lon;timestamp;P1;durP1;ratioP1;P2;durP2;ratioP2
8462;SDS011;4268;52.506;13.462;2024-02-26T00:00:38;12.17;;;11.03;;
8462;SDS011;4268;52.506;13.462;2024-02-26T00:03:04;12.00;;;10.90;;
8462;SDS011;4268;52.506;13.462;2024-02-26T00:05:29;11.57;;;10.47;;
8462;SDS011;4268;52.506;13.462;2024-02-26T00:07:56;11.90;;;10.80;;
8462;SDS011;4268;52.506;13.462;2024-02-26T00:10:22;11.87;;;10.77;;
8462;SDS011;4268;52.506;13.462;2024-02-26T00:12:47;12.53;;;10.87;;
8462;SDS011;4268;52.506;13.462;2024-02-26T00:15:13;11.77;;;10.53;;
8462;SDS011;4268;52.506;13.462;2024-02-26T00:17:39;12.17;;;10.97;;
8462;SDS011;4268;52.506;13.462;2024-02-26T00:20:05;13.70;;;11.17;;
8462;SDS011;4268;52.506;13.462;2024-02-26T00:22:33;13.43;;;12.13;;
8462;SDS011;4268;52.506;13.462;2024-02-26T00:24:59;12.43;;;11.23;;
8462;SDS011;4268;52.506;13.462;2024-02-26T00:27:25;12.73;;;11.47;;
8462;SDS011;4268;52.506;13.462;2024-02-26T00:29:50;12.33;;;11.13;;
8462;SDS011;4268;52.506;13.462;2024-02-26T00:32:16;11.53;;;10.43;;
8462;SDS011;4268;52.506;13.462;2024-02-26T00:34:41;10.07;;;9.17;;
8462;SDS011;4268;52.506;13.462;2024-02-26T00:37:06;11.53;;;10.27;;
8462;SDS011;4268;52.506;13.462;2024-02-26T00:39:32;11.40;;;10.30;;
8462;SDS011;4268;52.506;13.462;2024-02-26T00:41:57;11.27;;;10.10;;
8462;SDS011;4268;52.506;13.462;2024-02-26T00:44:23;9.63;;;8.80;;
8462;SDS011;4268;52.506;13.462;2024-02-26T00:46:48;8.83;;;8.03;;
8462;SDS011;4268;52.506;13.462;2024-02-26T00:49:14;9.27;;;8.37;;
8462;SDS011;4268;52.506;13.462;2024-02-26T00:51:39;10.13;;;8.57;;
8462;SDS011;4268;52.506;13.462;2024-02-26T00:54:05;8.00;;;7.30;;
8462;SDS011;4268;52.506;13.462;2024-02-26T00:56:30;7.80;;;7.10;;
8462;SDS011;4268;52.506;13.462;2024-02-26T00:58:56;7.97;;;7.17;;
8462;SDS011;4268;52.506;13.462;2024-02-26T01:01:21;8.00;;;7.37;;
8462;SDS011;4268;52.506;13.462;2024-02-26T01:03:47;7.27;;;6.67;;
8462;SDS011;4268;52.506;13.462;2024-02-26T01:06:12;7.53;;;6.93;;
8462;SDS011;4268;52.506;13.462;2024-02-26T01:08:38;7.70;;;7.10;;
8462;SDS011;4268;52.506;13.462;2024-02-26T01:11:04;7.57;;;6.97;;
8462;SDS011;4268;52.506;13.462;2024-02-26T01:13:29;8.77;;;7.97;;
8462;SDS011;4268;52.506;13.462;2024-02-26T01:15:55;8.30;;;7.50;;
8462;SDS011;4268;52.506;13.462;2024-02-26T01:18:21;8.80;;;8.03;;
8462;SDS011;4268;52.506;13.462;2024-02-26T01:20:47;8.73;;;7.93;;
8462;SDS011;4268;52.506;13.462;2024-02-26T01:23:12;7.97;;;7.27;;
8462;SDS011;4268;52.506;13.462;2024-02-26T01:25:38;8.20;;;7.50;;
8462;SDS011;4268;52.506;13.462;2024-02-26T01:28:04;8.60;;;7.90;;
8462;SDS011;4268;52.506;13.462;2024-02-26T01:30:30;8.93;;;8.23;;
8462;SDS011;4268;52.506;13.462;2024-02-26T01:32:56;10.40;;;9.60;;
8462;SDS011;4268;52.506;13.462;2024-02-26T01:35:21;8.70;;;7.90;;
8462;SDS011;4268;52.506;13.462;2024-02-26T01:37:47;8.80;;;8.10;;
8462;SDS011;4268;52.506;13.462;2024-02-26T01:40:13;8.50;;;7.70;;
8462;SDS011;4268;52.506;13.462;2024-02-26T01:42:42;8.40;;;7.70;;
8462;SDS011;4268;52.506;13.462;2024-02-26T01:45:11;9.37;;;8.47;;
8462;SDS011;4268;52.506;13.462;2024-02-26T01:47:41;8.83;;;7.93;;
8462;SDS011;4268;52.506;13.462;2024-02-26T01:50:07;8.03;;;7.33;;
8462;SDS011;4268;52.506;13.462;2024-02-26T01:52:33;8.97;;;8.17;;
8462;SDS011;4268;52.506;13.462;2024-02-26T01:54:59;8.50;;;7.80;;
8462;SDS011;4268;52.506;13.462;2024-02-26T01:57:26;8.27;;;7.57;;
8462;SDS011;4268;52.506;13.462;2024-02-26T01:59:52;9.23;;;8.33;;
8462;SDS011;4268;52.506;13.462;2024-02-26T02:02:18;8.83;;;8.03;;
8462;SDS011;4268;52.506;13.462;2024-02-26T02:04:44;8.20;;;7.50;;
8462;SDS011;4268;52.506;13.462;2024-02-26T02:07:09;8.00;;;7.40;;
8462;SDS011;4268;52.506;13.462;2024-02-26T02:09:35;8.27;;;7.63;;
8462;SDS011;4268;52.506;13.462;2024-02-26T02:12:01;8.70;;;8.00;;
8462;SDS011;4268;52.506;13.462;2024-02-26T02:14:27;7.37;;;6.83;;
8462;SDS011;4268;52.506;13.462;2024-02-26T02:16:52;7.77;;;7.07;;
8462;SDS011;4268;52.506;13.462;2024-02-26T02:19:18;7.07;;;6.47;;
8462;SDS011;4268;52.506;13.462;2024-02-26T02:21:43;7.90;;;7.30;;
8462;SDS011;4268;52.506;13.462;2024-02-26T02:24:09;6.70;;;6.20;;
8462;SDS011;4268;52.506;13.462;2024-02-26T02:26:34;6.67;;;6.17;;
8462;SDS011;4268;52.506;13.462;2024-02-26T02:29:00;6.70;;;6.20;;
8462;SDS011;4268;52.506;13.462;2024-02-26T02:31:26;6.80;;;6.20;;
8462;SDS011;4268;52.506;13.462;2024-02-26T02:33:52;7.33;;;6.73;;
8462;SDS011;4268;52.506;13.462;2024-02-26T02:36:18;7.23;;;6.70;;
8462;SDS011;4268;52.506;13.462;2024-02-26T02:38:50;7.20;;;6.60;;
8462;SDS011;4268;52.506;13.462;2024-02-26T02:41:17;8.10;;;7.40;;
8462;SDS011;4268;52.506;13.462;2024-02-26T02:43:43;7.33;;;6.70;;
8462;SDS011;4268;52.506;13.462;2024-02-26T02:46:08;7.07;;;6.33;;
8462;SDS011;4268;52.506;13.462;2024-02-26T02:48:36;6.63;;;6.03;;
8462;SDS011;4268;52.506;13.462;2024-02-26T02:51:01;5.83;;;5.33;;
8462;SDS011;4268;52.506;13.462;2024-02-26T02:53:27;6.60;;;6.00;;
8462;SDS011;4268;52.506;13.462;2024-02-26T02:55:52;6.00;;;5.50;;
8462;SDS011;4268;52.506;13.462;2024-02-26T02:58:18;6.33;;;5.83;;
8462;SDS011;4268;52.506;13.462;2024-02-26T03:00:43;6.00;;;5.50;;
8462;SDS011;4268;52.506;13.462;2024-02-26T03:03:09;6.47;;;5.97;;
8462;SDS011;4268;52.506;13.462;2024-02-26T03:05:34;6.20;;;5.67;;
8462;SDS011;4268;52.506;13.462;2024-02-26T03:08:00;6.60;;;6.10;;
8462;SDS011;4268;52.506;13.462;2024-02-26T03:10:25;6.90;;;6.30;;
8462;SDS011;4268;52.506;13.462;2024-02-26T03:12:53;6.97;;;6.37;;
8462;SDS011;4268;52.506;13.462;2024-02-26T03:15:18;7.43;;;6.80;;
8462;SDS011;4268;52.506;13.462;2024-02-26T03:17:44;7.63;;;7.00;;
8462;SDS011;4268;52.506;13.462;2024-02-26T03:20:10;7.47;;;6.87;;
8462;SDS011;4268;52.506;13.462;2024-02-26T03:22:35;7.87;;;7.27;;
8462;SDS011;4268;52.506;13.462;2024-02-26T03:25:03;8.17;;;7.57;;
8462;SDS011;4268;52.506;13.462;2024-02-26T03:27:29;8.50;;;7.80;;
8462;SDS011;4268;52.506;13.462;2024-02-26T03:29:54;8.07;;;7.47;;
8462;SDS011;4268;52.506;13.462;2024-02-26T03:32:20;8.77;;;7.97;;
8462;SDS011;4268;52.506;13.462;2024-02-26T03:34:45;7.90;;;7.30;;
8462;SDS011;4268;52.506;13.462;2024-02-26T03:37:11;8.57;;;7.87;;
8462;SDS011;4268;52.506;13.462;2024-02-26T03:39:37;9.07;;;8.27;;
8462;SDS011;4268;52.506;13.462;2024-02-26T03:42:02;8.30;;;7.60;;
8462;SDS011;4268;52.506;13.462;2024-02-26T03:44:28;8.30;;;7.70;;
8462;SDS011;4268;52.506;13.462;2024-02-26T03:46:54;8.43;;;7.73;;
8462;SDS011;4268;52.506;13.462;2024-02-26T03:49:20;9.30;;;8.40;;
8462;SDS011;4268;52.506;13.462;2024-02-26T03:51:47;8.90;;;8.10;;
8462;SDS011;4268;52.506;13.462;2024-02-26T03:54:13;9.40;;;8.47;;
8462;SDS011;4268;52.506;13.462;2024-02-26T03:56:39;8.57;;;7.87;;
8462;SDS011;4268;52.506;13.462;2024-02-26T03:59:04;8.57;;;7.87;;
8462;SDS011;4268;52.506;13.462;2024-02-26T04:01:30;9.00;;;8.20;;
8462;SDS011;4268;52.506;13.462;2024-02-26T04:03:55;8.73;;;8.03;;
8462;SDS011;4268;52.506;13.462;2024-02-26T04:06:21;9.13;;;8.43;;
8462;SDS011;4268;52.506;13.462;2024-02-26T04:08:50;8.90;;;8.20;;
8462;SDS011;4268;52.506;13.462;2024-02-26T04:11:16;8.80;;;8.10;;
8462;SDS011;4268;52.506;13.462;2024-02-26T04:13:46;8.87;;;8.17;;
8462;SDS011;4268;52.506;13.462;2024-02-26T04:16:14;8.83;;;8.13;;
8462;SDS011;4268;52.506;13.462;2024-02-26T04:18:41;9.23;;;8.43;;
8462;SDS011;4268;52.506;13.462;2024-02-26T04:21:07;9.17;;;8.37;;
8462;SDS011;4268;52.506;13.462;2024-02-26T04:23:32;10.70;;;9.17;;
8462;SDS011;4268;52.506;13.462;2024-02-26T04:25:58;9.30;;;8.50;;
8462;SDS011;4268;52.506;13.462;2024-02-26T04:28:23;9.03;;;8.23;;
8462;SDS011;4268;52.506;13.462;2024-02-26T04:30:51;15.47;;;14.27;;
8462;SDS011;4268;52.506;13.462;2024-02-26T04:33:16;8.67;;;7.87;;
8462;SDS011;4268;52.506;13.462;2024-02-26T04:35:42;9.53;;;8.73;;
8462;SDS011;4268;52.506;13.462;2024-02-26T04:38:07;9.60;;;8.80;;
8462;SDS011;4268;52.506;13.462;2024-02-26T04:40:33;9.03;;;8.33;;
8462;SDS011;4268;52.506;13.462;2024-02-26T04:42:58;10.80;;;8.63;;
8462;SDS011;4268;52.506;13.462;2024-02-26T04:45:24;9.13;;;8.33;;
8462;SDS011;4268;52.506;13.462;2024-02-26T04:47:49;8.93;;;8.20;;
8462;SDS011;4268;52.506;13.462;2024-02-26T04:50:15;9.60;;;8.67;;
8462;SDS011;4268;52.506;13.462;2024-02-26T04:52:40;9.40;;;8.70;;
8462;SDS011;4268;52.506;13.462;2024-02-26T04:55:06;9.60;;;8.80;;
8462;SDS011;4268;52.506;13.462;2024-02-26T04:57:32;10.20;;;9.20;;
8462;SDS011;4268;52.506;13.462;2024-02-26T04:59:57;10.33;;;9.53;;
8462;SDS011;4268;52.506;13.462;2024-02-26T05:02:23;10.20;;;9.30;;
8462;SDS011;4268;52.506;13.462;2024-02-26T05:04:49;10.33;;;9.43;;
8462;SDS011;4268;52.506;13.462;2024-02-26T05:07:14;10.63;;;9.73;;
8462;SDS011;4268;52.506;13.462;2024-02-26T05:09:42;10.60;;;9.70;;
8462;SDS011;4268;52.506;13.462;2024-02-26T05:12:08;10.87;;;9.93;;
8462;SDS011;4268;52.506;13.462;2024-02-26T05:14:34;10.40;;;9.50;;
8462;SDS011;4268;52.506;13.462;2024-02-26T05:17:00;12.20;;;11.13;;
8462;SDS011;4268;52.506;13.462;2024-02-26T05:19:25;10.97;;;9.87;;
8462;SDS011;4268;52.506;13.462;2024-02-26T05:21:50;12.10;;;11.03;;
8462;SDS011;4268;52.506;13.462;2024-02-26T05:24:16;11.03;;;10.10;;
8462;SDS011;4268;52.506;13.462;2024-02-26T05:26:42;12.60;;;11.30;;
8462;SDS011;4268;52.506;13.462;2024-02-26T05:29:08;12.83;;;11.63;;
8462;SDS011;4268;52.506;13.462;2024-02-26T05:31:34;11.10;;;10.10;;
8462;SDS011;4268;52.506;13.462;2024-02-26T05:33:59;11.77;;;10.67;;
8462;SDS011;4268;52.506;13.462;2024-02-26T05:36:25;11.73;;;10.63;;
8462;SDS011;4268;52.506;13.462;2024-02-26T05:38:51;11.83;;;10.83;;
8462;SDS011;4268;52.506;13.462;2024-02-26T05:41:16;10.90;;;9.80;;
8462;SDS011;4268;52.506;13.462;2024-02-26T05:43:47;12.20;;;11.10;;
8462;SDS011;4268;52.506;13.462;2024-02-26T05:46:16;17.03;;;15.70;;
8462;SDS011;4268;52.506;13.462;2024-02-26T05:48:43;11.93;;;10.83;;
8462;SDS011;4268;52.506;13.462;2024-02-26T05:51:12;12.70;;;11.40;;
8462;SDS011;4268;52.506;13.462;2024-02-26T05:53:37;13.00;;;11.80;;
8462;SDS011;4268;52.506;13.462;2024-02-26T05:56:03;11.90;;;10.80;;
8462;SDS011;4268;52.506;13.462;2024-02-26T05:58:29;12.73;;;11.43;;
8462;SDS011;4268;52.506;13.462;2024-02-26T06:00:54;12.50;;;11.30;;
8462;SDS011;4268;52.506;13.462;2024-02-26T06:03:20;16.67;;;15.37;;
8462;SDS011;4268;52.506;13.462;2024-02-26T06:05:45;12.70;;;11.60;;
8462;SDS011;4268;52.506;13.462;2024-02-26T06:08:11;12.13;;;10.93;;
8462;SDS011;4268;52.506;13.462;2024-02-26T06:10:36;14.23;;;12.07;;
8462;SDS011;4268;52.506;13.462;2024-02-26T06:13:04;12.80;;;11.60;;
8462;SDS011;4268;52.506;13.462;2024-02-26T06:15:29;13.53;;;12.23;;
8462;SDS011;4268;52.506;13.462;2024-02-26T06:17:55;13.33;;;11.93;;
8462;SDS011;4268;52.506;13.462;2024-02-26T06:20:20;16.93;;;15.53;;
8462;SDS011;4268;52.506;13.462;2024-02-26T06:22:46;13.07;;;11.87;;
8462;SDS011;4268;52.506;13.462;2024-02-26T06:25:11;13.23;;;12.03;;
8462;SDS011;4268;52.506;13.462;2024-02-26T06:27:37;13.03;;;11.73;;
8462;SDS011;4268;52.506;13.462;2024-02-26T06:30:02;13.30;;;12.07;;
8462;SDS011;4268;52.506;13.462;2024-02-26T06:32:28;13.47;;;12.17;;
8462;SDS011;4268;52.506;13.462;2024-02-26T06:34:54;13.90;;;12.47;;
8462;SDS011;4268;52.506;13.462;2024-02-26T06:37:20;14.67;;;13.17;;
8462;SDS011;4268;52.506;13.462;2024-02-26T06:39:45;13.63;;;12.23;;
8462;SDS011;4268;52.506;13.462;2024-02-26T06:42:11;12.53;;;11.30;;
8462;SDS011;4268;52.506;13.462;2024-02-26T06:44:37;12.60;;;11.30;;
8462;SDS011;4268;52.506;13.462;2024-02-26T06:47:02;13.03;;;11.83;;
8462;SDS011;4268;52.506;13.462;2024-02-26T06:49:28;13.40;;;12.10;;
8462;SDS011;4268;52.506;13.462;2024-02-26T06:51:54;12.97;;;11.77;;
8462;SDS011;4268;52.506;13.462;2024-02-26T06:54:19;13.37;;;12.17;;
8462;SDS011;4268;52.506;13.462;2024-02-26T06:56:45;13.53;;;12.33;;
8462;SDS011;4268;52.506;13.462;2024-02-26T06:59:11;13.23;;;12.00;;
8462;SDS011;4268;52.506;13.462;2024-02-26T07:01:37;13.10;;;11.90;;
8462;SDS011;4268;52.506;13.462;2024-02-26T07:04:05;14.13;;;12.83;;
8462;SDS011;4268;52.506;13.462;2024-02-26T07:06:30;14.00;;;12.70;;
8462;SDS011;4268;52.506;13.462;2024-02-26T07:08:56;12.63;;;11.33;;
8462;SDS011;4268;52.506;13.462;2024-02-26T07:11:21;12.80;;;11.70;;
8462;SDS011;4268;52.506;13.462;2024-02-26T07:13:47;11.63;;;10.53;;
8462;SDS011;4268;52.506;13.462;2024-02-26T07:16:14;13.23;;;12.23;;
8462;SDS011;4268;52.506;13.462;2024-02-26T07:18:40;10.60;;;9.60;;
8462;SDS011;4268;52.506;13.462;2024-02-26T07:21:05;10.60;;;9.70;;
8462;SDS011;4268;52.506;13.462;2024-02-26T07:23:31;10.43;;;9.63;;
8462;SDS011;4268;52.506;13.462;2024-02-26T07:25:57;14.53;;;13.20;;
8462;SDS011;4268;52.506;13.462;2024-02-26T07:28:22;10.27;;;9.37;;
8462;SDS011;4268;52.506;13.462;2024-02-26T07:30:49;9.70;;;8.90;;
8462;SDS011;4268;52.506;13.462;2024-02-26T07:33:15;10.17;;;9.27;;
8462;SDS011;4268;52.506;13.462;2024-02-26T07:35:41;10.73;;;9.73;;
8462;SDS011;4268;52.506;13.462;2024-02-26T07:38:06;9.80;;;9.00;;
8462;SDS011;4268;52.506;13.462;2024-02-26T07:40:32;11.00;;;10.00;;
8462;SDS011;4268;52.506;13.462;2024-02-26T07:42:58;10.20;;;9.30;;
8462;SDS011;4268;52.506;13.462;2024-02-26T07:45:23;10.40;;;9.53;;
8462;SDS011;4268;52.506;13.462;2024-02-26T07:47:49;10.60;;;9.63;;
8462;SDS011;4268;52.506;13.462;2024-02-26T07:50:16;10.33;;;9.43;;
8462;SDS011;4268;52.506;13.462;2024-02-26T07:52:42;11.37;;;10.37;;
8462;SDS011;4268;52.506;13.462;2024-02-26T07:55:08;10.93;;;9.97;;
8462;SDS011;4268;52.506;13.462;2024-02-26T07:57:34;11.57;;;10.57;;
8462;SDS011;4268;52.506;13.462;2024-02-26T08:00:00;11.23;;;10.17;;
8462;SDS011;4268;52.506;13.462;2024-02-26T08:02:25;11.77;;;10.67;;
8462;SDS011;4268;52.506;13.462;2024-02-26T08:04:51;12.73;;;11.63;;
8462;SDS011;4268;52.506;13.462;2024-02-26T08:07:16;12.53;;;11.30;;
8462;SDS011;4268;52.506;13.462;2024-02-26T08:09:42;12.97;;;11.70;;
8462;SDS011;4268;52.506;13.462;2024-02-26T08:12:09;13.27;;;11.93;;
8462;SDS011;4268;52.506;13.462;2024-02-26T08:14:35;13.40;;;12.10;;
8462;SDS011;4268;52.506;13.462;2024-02-26T08:17:00;14.17;;;12.23;;
8462;SDS011;4268;52.506;13.462;2024-02-26T08:19:26;14.10;;;12.53;;
8462;SDS011;4268;52.506;13.462;2024-02-26T08:21:52;15.57;;;13.97;;
8462;SDS011;4268;52.506;13.462;2024-02-26T08:24:17;15.83;;;14.20;;
8462;SDS011;4268;52.506;13.462;2024-02-26T08:26:43;15.83;;;14.17;;
8462;SDS011;4268;52.506;13.462;2024-02-26T08:29:08;16.07;;;14.57;;
8462;SDS011;4268;52.506;13.462;2024-02-26T08:31:34;15.57;;;14.07;;
8462;SDS011;4268;52.506;13.462;2024-02-26T08:34:02;16.83;;;15.23;;
8462;SDS011;4268;52.506;13.462;2024-02-26T08:36:28;15.53;;;14.00;;
8462;SDS011;4268;52.506;13.462;2024-02-26T08:38:53;14.30;;;12.97;;
8462;SDS011;4268;52.506;13.462;2024-02-26T08:41:19;14.87;;;13.27;;
8462;SDS011;4268;52.506;13.462;2024-02-26T08:43:44;14.67;;;13.20;;
8462;SDS011;4268;52.506;13.462;2024-02-26T08:46:10;14.87;;;13.47;;
8462;SDS011;4268;52.506;13.462;2024-02-26T08:48:38;13.90;;;12.47;;
8462;SDS011;4268;52.506;13.462;2024-02-26T08:51:07;14.67;;;13.27;;
8462;SDS011;4268;52.506;13.462;2024-02-26T08:53:33;14.10;;;12.90;;
8462;SDS011;4268;52.506;13.462;2024-02-26T08:56:00;15.00;;;13.53;;
8462;SDS011;4268;52.506;13.462;2024-02-26T08:58:27;14.77;;;13.27;;
8462;SDS011;4268;52.506;13.462;2024-02-26T09:00:52;14.63;;;13.13;;
8462;SDS011;4268;52.506;13.462;2024-02-26T09:03:18;14.53;;;12.97;;
8462;SDS011;4268;52.506;13.462;2024-02-26T09:05:43;14.00;;;12.70;;
8462;SDS011;4268;52.506;13.462;2024-02-26T09:08:09;13.67;;;12.40;;
8462;SDS011;4268;52.506;13.462;2024-02-26T09:10:35;13.90;;;12.50;;
8462;SDS011;4268;52.506;13.462;2024-02-26T09:13:00;14.93;;;13.43;;
8462;SDS011;4268;52.506;13.462;2024-02-26T09:15:26;14.67;;;13.27;;
8462;SDS011;4268;52.506;13.462;2024-02-26T09:17:51;14.10;;;12.67;;
8462;SDS011;4268;52.506;13.462;2024-02-26T09:20:17;12.50;;;11.30;;
8462;SDS011;4268;52.506;13.462;2024-02-26T09:22:46;13.67;;;12.47;;
8462;SDS011;4268;52.506;13.462;2024-02-26T09:25:13;13.23;;;11.93;;
8462;SDS011;4268;52.506;13.462;2024-02-26T09:27:40;13.17;;;11.87;;
8462;SDS011;4268;52.506;13.462;2024-02-26T09:30:08;13.43;;;12.13;;
8462;SDS011;4268;52.506;13.462;2024-02-26T09:32:34;13.03;;;11.83;;
8462;SDS011;4268;52.506;13.462;2024-02-26T09:35:00;13.50;;;12.17;;
8462;SDS011;4268;52.506;13.462;2024-02-26T09:37:25;12.97;;;11.67;;
8462;SDS011;4268;52.506;13.462;2024-02-26T09:39:51;12.93;;;11.73;;
8462;SDS011;4268;52.506;13.462;2024-02-26T09:42:17;12.63;;;11.47;;
8462;SDS011;4268;52.506;13.462;2024-02-26T09:44:43;13.03;;;11.83;;
8462;SDS011;4268;52.506;13.462;2024-02-26T09:47:10;13.07;;;11.97;;
8462;SDS011;4268;52.506;13.462;2024-02-26T09:49:38;12.43;;;11.27;;
8462;SDS011;4268;52.506;13.462;2024-02-26T09:52:04;12.40;;;11.30;;
8462;SDS011;4268;52.506;13.462;2024-02-26T09:54:30;12.73;;;11.43;;
8462;SDS011;4268;52.506;13.462;2024-02-26T09:56:59;12.10;;;11.00;;
8462;SDS011;4268;52.506;13.462;2024-02-26T09:59:36;12.07;;;10.80;;
8462;SDS011;4268;52.506;13.462;2024-02-26T10:02:06;12.23;;;11.10;;
8462;SDS011;4268;52.506;13.462;2024-02-26T10:04:39;11.23;;;10.13;;
8462;SDS011;4268;52.506;13.462;2024-02-26T10:07:09;11.70;;;10.60;;
8462;SDS011;4268;52.506;13.462;2024-02-26T10:09:36;12.77;;;11.50;;
8462;SDS011;4268;52.506;13.462;2024-02-26T10:12:02;12.10;;;10.90;;
8462;SDS011;4268;52.506;13.462;2024-02-26T10:14:29;12.07;;;10.93;;
8462;SDS011;4268;52.506;13.462;2024-02-26T10:16:55;12.17;;;10.97;;
8462;SDS011;4268;52.506;13.462;2024-02-26T10:19:25;10.93;;;9.83;;
8462;SDS011;4268;52.506;13.462;2024-02-26T10:21:54;11.70;;;10.43;;
8462;SDS011;4268;52.506;13.462;2024-02-26T10:24:24;11.30;;;10.37;;
8462;SDS011;4268;52.506;13.462;2024-02-26T10:26:50;12.67;;;11.57;;
8462;SDS011;4268;52.506;13.462;2024-02-26T10:29:17;11.23;;;10.20;;
8462;SDS011;4268;52.506;13.462;2024-02-26T10:31:44;10.23;;;9.33;;
8462;SDS011;4268;52.506;13.462;2024-02-26T10:34:10;11.10;;;10.10;;
8462;SDS011;4268;52.506;13.462;2024-02-26T10:36:36;11.40;;;10.33;;
8462;SDS011;4268;52.506;13.462;2024-02-26T10:39:02;11.10;;;10.00;;
8462;SDS011;4268;52.506;13.462;2024-02-26T10:41:29;10.83;;;9.93;;
8462;SDS011;4268;52.506;13.462;2024-02-26T10:43:55;10.73;;;9.80;;
8462;SDS011;4268;52.506;13.462;2024-02-26T10:46:21;10.20;;;9.20;;
8462;SDS011;4268;52.506;13.462;2024-02-26T10:48:50;10.47;;;9.57;;
8462;SDS011;4268;52.506;13.462;2024-02-26T10:51:16;10.37;;;9.47;;
8462;SDS011;4268;52.506;13.462;2024-02-26T10:53:50;10.40;;;9.40;;
8462;SDS011;4268;52.506;13.462;2024-02-26T10:56:19;10.17;;;9.20;;
8462;SDS011;4268;52.506;13.462;2024-02-26T10:58:46;10.23;;;9.30;;
8462;SDS011;4268;52.506;13.462;2024-02-26T11:01:12;10.47;;;9.47;;
8462;SDS011;4268;52.506;13.462;2024-02-26T11:03:38;10.20;;;9.30;;
8462;SDS011;4268;52.506;13.462;2024-02-26T11:06:07;9.30;;;8.50;;
8462;SDS011;4268;52.506;13.462;2024-02-26T11:08:34;9.13;;;8.33;;
8462;SDS011;4268;52.506;13.462;2024-02-26T11:11:00;9.43;;;8.43;;
8462;SDS011;4268;52.506;13.462;2024-02-26T11:13:29;8.80;;;8.00;;
8462;SDS011;4268;52.506;13.462;2024-02-26T11:15:56;8.73;;;7.93;;
8462;SDS011;4268;52.506;13.462;2024-02-26T11:18:22;9.20;;;8.30;;
8462;SDS011;4268;52.506;13.462;2024-02-26T11:20:51;8.57;;;7.87;;
8462;SDS011;4268;52.506;13.462;2024-02-26T11:23:21;8.40;;;7.70;;
8462;SDS011;4268;52.506;13.462;2024-02-26T11:25:47;9.10;;;8.20;;
8462;SDS011;4268;52.506;13.462;2024-02-26T11:28:15;8.47;;;7.73;;
8462;SDS011;4268;52.506;13.462;2024-02-26T11:30:43;8.57;;;7.77;;
8462;SDS011;4268;52.506;13.462;2024-02-26T11:33:11;9.10;;;8.30;;
8462;SDS011;4268;52.506;13.462;2024-02-26T11:35:38;8.63;;;7.83;;
8462;SDS011;4268;52.506;13.462;2024-02-26T11:38:04;8.73;;;7.93;;
8462;SDS011;4268;52.506;13.462;2024-02-26T11:40:32;8.80;;;8.00;;
8462;SDS011;4268;52.506;13.462;2024-02-26T11:43:03;8.73;;;7.93;;
8462;SDS011;4268;52.506;13.462;2024-02-26T11:48:13;8.73;;;7.93;;
8462;SDS011;4268;52.506;13.462;2024-02-26T11:50:47;8.90;;;8.20;;
8462;SDS011;4268;52.506;13.462;2024-02-26T11:53:19;10.03;;;9.03;;
8462;SDS011;4268;52.506;13.462;2024-02-26T11:55:48;9.73;;;8.83;;
8462;SDS011;4268;52.506;13.462;2024-02-26T11:58:33;9.87;;;8.93;;
8462;SDS011;4268;52.506;13.462;2024-02-26T12:00:58;9.27;;;8.40;;
8462;SDS011;4268;52.506;13.462;2024-02-26T12:03:24;10.17;;;8.30;;
8462;SDS011;4268;52.506;13.462;2024-02-26T12:05:51;8.90;;;8.10;;
8462;SDS011;4268;52.506;13.462;2024-02-26T12:08:17;8.97;;;8.27;;
8462;SDS011;4268;52.506;13.462;2024-02-26T12:10:44;9.30;;;8.50;;
8462;SDS011;4268;52.506;13.462;2024-02-26T12:13:12;9.40;;;8.60;;
8462;SDS011;4268;52.506;13.462;2024-02-26T12:15:40;10.03;;;9.03;;
8462;SDS011;4268;52.506;13.462;2024-02-26T12:18:08;9.50;;;8.60;;
8462;SDS011;4268;52.506;13.462;2024-02-26T12:20:35;11.27;;;10.13;;
8462;SDS011;4268;52.506;13.462;2024-02-26T12:23:05;10.60;;;9.60;;
8462;SDS011;4268;52.506;13.462;2024-02-26T12:25:30;10.77;;;9.63;;
8462;SDS011;4268;52.506;13.462;2024-02-26T12:27:57;10.40;;;9.47;;
8462;SDS011;4268;52.506;13.462;2024-02-26T12:30:23;10.30;;;9.30;;
8462;SDS011;4268;52.506;13.462;2024-02-26T12:32:54;9.40;;;8.50;;
8462;SDS011;4268;52.506;13.462;2024-02-26T12:35:26;10.30;;;9.27;;
8462;SDS011;4268;52.506;13.462;2024-02-26T12:37:55;9.83;;;9.03;;
8462;SDS011;4268;52.506;13.462;2024-02-26T12:40:21;10.57;;;9.67;;
8462;SDS011;4268;52.506;13.462;2024-02-26T12:42:46;9.70;;;8.80;;
8462;SDS011;4268;52.506;13.462;2024-02-26T12:45:12;9.07;;;8.30;;
8462;SDS011;4268;52.506;13.462;2024-02-26T12:47:40;11.77;;;9.90;;
8462;SDS011;4268;52.506;13.462;2024-02-26T12:50:07;9.90;;;9.10;;
8462;SDS011;4268;52.506;13.462;2024-02-26T12:52:34;9.20;;;8.40;;
8462;SDS011;4268;52.506;13.462;2024-02-26T12:55:11;10.07;;;9.10;;
8462;SDS011;4268;52.506;13.462;2024-02-26T12:57:40;9.10;;;8.30;;
8462;SDS011;4268;52.506;13.462;2024-02-26T13:00:08;9.10;;;8.30;;
8462;SDS011;4268;52.506;13.462;2024-02-26T13:02:37;8.60;;;7.80;;
8462;SDS011;4268;52.506;13.462;2024-02-26T13:05:04;8.70;;;7.87;;
8462;SDS011;4268;52.506;13.462;2024-02-26T13:07:32;8.77;;;8.03;;
8462;SDS011;4268;52.506;13.462;2024-02-26T13:09:58;9.93;;;8.47;;
8462;SDS011;4268;52.506;13.462;2024-02-26T13:12:24;8.13;;;7.43;;
8462;SDS011;4268;52.506;13.462;2024-02-26T13:15:00;8.00;;;7.40;;
8462;SDS011;4268;52.506;13.462;2024-02-26T13:17:26;7.90;;;7.30;;
8462;SDS011;4268;52.506;13.462;2024-02-26T13:19:53;7.57;;;6.97;;
8462;SDS011;4268;52.506;13.462;2024-02-26T13:22:20;8.10;;;7.40;;
8462;SDS011;4268;52.506;13.462;2024-02-26T13:24:53;8.27;;;7.47;;
8462;SDS011;4268;52.506;13.462;2024-02-26T13:27:23;6.87;;;6.20;;
8462;SDS011;4268;52.506;13.462;2024-02-26T13:29:48;6.60;;;6.00;;
8462;SDS011;4268;52.506;13.462;2024-02-26T13:32:26;6.90;;;6.30;;
8462;SDS011;4268;52.506;13.462;2024-02-26T13:35:03;7.10;;;6.50;;
8462;SDS011;4268;52.506;13.462;2024-02-26T13:37:30;6.67;;;6.17;;
8462;SDS011;4268;52.506;13.462;2024-02-26T13:39:55;7.17;;;6.57;;
8462;SDS011;4268;52.506;13.462;2024-02-26T13:42:21;6.73;;;6.23;;
8462;SDS011;4268;52.506;13.462;2024-02-26T13:44:46;7.50;;;6.70;;
8462;SDS011;4268;52.506;13.462;2024-02-26T13:47:12;7.07;;;6.37;;
8462;SDS011;4268;52.506;13.462;2024-02-26T13:49:38;6.80;;;6.30;;
8462;SDS011;4268;52.506;13.462;2024-02-26T13:52:03;6.60;;;6.00;;
8462;SDS011;4268;52.506;13.462;2024-02-26T13:54:29;7.23;;;6.53;;
8462;SDS011;4268;52.506;13.462;2024-02-26T13:56:54;7.03;;;6.43;;
8462;SDS011;4268;52.506;13.462;2024-02-26T13:59:20;6.83;;;6.20;;
8462;SDS011;4268;52.506;13.462;2024-02-26T14:01:45;6.97;;;6.37;;
8462;SDS011;4268;52.506;13.462;2024-02-26T14:04:11;7.30;;;6.60;;
8462;SDS011;4268;52.506;13.462;2024-02-26T14:06:36;7.13;;;6.40;;
8462;SDS011;4268;52.506;13.462;2024-02-26T14:09:02;6.83;;;6.23;;
8462;SDS011;4268;52.506;13.462;2024-02-26T14:11:29;7.80;;;6.17;;
8462;SDS011;4268;52.506;13.462;2024-02-26T14:13:54;7.10;;;6.50;;
8462;SDS011;4268;52.506;13.462;2024-02-26T14:16:20;6.87;;;6.27;;
8462;SDS011;4268;52.506;13.462;2024-02-26T14:18:45;7.70;;;6.90;;
8462;SDS011;4268;52.506;13.462;2024-02-26T14:21:11;7.37;;;6.77;;
8462;SDS011;4268;52.506;13.462;2024-02-26T14:23:37;7.60;;;6.90;;
8462;SDS011;4268;52.506;13.462;2024-02-26T14:26:03;7.37;;;6.67;;
8462;SDS011;4268;52.506;13.462;2024-02-26T14:28:29;7.63;;;6.93;;
8462;SDS011;4268;52.506;13.462;2024-02-26T14:30:55;7.50;;;6.80;;
8462;SDS011;4268;52.506;13.462;2024-02-26T14:33:20;6.97;;;6.30;;
8462;SDS011;4268;52.506;13.462;2024-02-26T14:35:46;7.00;;;6.40;;
8462;SDS011;4268;52.506;13.462;2024-02-26T14:38:11;7.60;;;6.90;;
8462;SDS011;4268;52.506;13.462;2024-02-26T14:40:38;6.73;;;6.20;;
8462;SDS011;4268;52.506;13.462;2024-02-26T14:43:03;7.83;;;7.03;;
8462;SDS011;4268;52.506;13.462;2024-02-26T14:45:29;8.03;;;7.33;;
8462;SDS011;4268;52.506;13.462;2024-02-26T14:47:55;7.97;;;6.90;;